Benton, CA (93512)

9:55 AM PDT on August 20, 2014 (GMT -0700)
Mammoth Yosemite | Change Station
CLOSE
Current Station
Airport
Location: Mammoth,
Elevation: 7129 ft
Nearby Weather Stations

Elev 7129 ft 37.62 °N, 118.84 °W | Updated 20 minutes ago

Clear
Clear
66 °F
Feels Like 66 °F
N
6
Wind Variable Wind from ESE

Today
High -- | Low -- °F
--% Chance of Precip.
Yesterday
High -- | Low -- °F
Precip. -- in
6:14 AM 7:40 PM
Waning Crescent, 20% visible
Pressure 30.16 in
Visibility 10.0 miles
Clouds Clear
Dew Point 37 °F
Humidity 35%
Rainfall 0.00 in
Snow Depth Not available.
UV 5 out of 12
Pollen 8.60 out of 12
Air Quality Not available.
Flu Activity Not available.
METAR KMMH 201635Z AUTO 12005KT 10SM CLR 19/03 A3016 RMK AO1

More Conditions Fewer Conditions

Pressure 30.16 in
Visibility 10.0 miles
Clouds Clear
Dew Point 37 °F
Humidity 35%
Rainfall 0.00 in
Snow Depth Not available.
UV 5 out of 12
Pollen 8.60 out of 12
Air Quality Not available.
Flu Activity Not available.
METAR KMMH 201635Z AUTO 12005KT 10SM CLR 19/03 A3016 RMK AO1

More Conditions Fewer Conditions

10-Day Weather Forecast

Almanac

Astronomy

Aug. 20, 2014 Rise Set
Actual Time 6:14 AM PDT 7:40 PM PDT
Civil Twilight 5:46 AM PDT 8:08 PM PDT
Nautical Twilight 5:13 AM PDT 8:41 PM PDT
Astronomical Twilight 4:38 AM PDT 9:16 PM PDT
Moon 2:00 AM PDT 4:27 PM PDT
Length of Visible Light 14h 21m
Length of Day
13h 26m
Tomorrow will be 2m 12s shorter.
Waning Crescent, 20% of the Moon is Illuminated
Today
Waning Crescent
Aug 25
New
Sep 2
First Quarter
Sep 8
Full
Sep 15
Last Quarter

Today's Extremes

State Highs State Lows

Community

WunderPhotos

Upload Photos

1,745,691 photos uploaded!

WunderBlogs® & News

Nearby

Snow Depth

Station Depth Elevation
Leavitt Meadows 1 in 7200 ft
Leavitt Lake 1 in 9400 ft
Summit Meadow 1 in 9122 ft
Monitor Pass 0 in 8350 ft
Ebbetts Pass 0 in 8700 ft

Earthquake Activity

City Distance Mag. Time & Date
Kettleman City, California 142 miles 2.9 11:32 PM PDT
2014-08-14
Mariposa, California 76 miles 2.5 4:54 AM PDT
2014-08-14
Mariposa, California 78 miles 2.7 3:31 AM PDT
2014-08-14
Minimum magnitude displayed is 2.5.

Coastal Water Temperatures

Place Temperature
No Stations Reporting

Nearby Weather Stations